sensor_id;sensor_type;location;lat;lon;timestamp;pressure;altitude;pressure_sealevel;temperature;humidity
64139;BME280;50435;43.700;-79.318;2023-03-15T00:02:20;100405.20;;;-0.48;36.71
64139;BME280;50435;43.700;-79.318;2023-03-15T00:04:47;100403.88;;;-0.26;36.77
64139;BME280;50435;43.700;-79.318;2023-03-15T00:07:15;100412.79;;;-0.50;36.58
64139;BME280;50435;43.700;-79.318;2023-03-15T00:09:43;100407.38;;;-0.28;36.59
64139;BME280;50435;43.700;-79.318;2023-03-15T00:12:10;100413.65;;;-0.25;36.42
64139;BME280;50435;43.700;-79.318;2023-03-15T00:14:37;100417.91;;;-0.25;36.62
64139;BME280;50435;43.700;-79.318;2023-03-15T00:17:05;100423.32;;;-0.25;36.93
64139;BME280;50435;43.700;-79.318;2023-03-15T00:19:32;100419.85;;;-0.82;36.68
64139;BME280;50435;43.700;-79.318;2023-03-15T00:22:00;100425.94;;;-0.62;36.80
64139;BME280;50435;43.700;-79.318;2023-03-15T00:24:27;100427.38;;;-0.48;37.22
64139;BME280;50435;43.700;-79.318;2023-03-15T00:26:55;100428.49;;;-0.27;36.52
64139;BME280;50435;43.700;-79.318;2023-03-15T00:29:22;100433.75;;;-0.31;36.95
64139;BME280;50435;43.700;-79.318;2023-03-15T00:31:49;100437.99;;;-0.56;37.17
64139;BME280;50435;43.700;-79.318;2023-03-15T00:34:17;100452.15;;;-0.64;36.76
64139;BME280;50435;43.700;-79.318;2023-03-15T00:36:44;100448.05;;;-0.70;37.37
64139;BME280;50435;43.700;-79.318;2023-03-15T00:39:12;100461.05;;;-0.84;36.17
64139;BME280;50435;43.700;-79.318;2023-03-15T00:41:39;100455.95;;;-0.60;37.20
64139;BME280;50435;43.700;-79.318;2023-03-15T00:44:06;100459.10;;;-0.42;37.27
64139;BME280;50435;43.700;-79.318;2023-03-15T00:46:34;100455.32;;;-0.46;36.95
64139;BME280;50435;43.700;-79.318;2023-03-15T00:49:02;100463.22;;;-0.34;37.39
64139;BME280;50435;43.700;-79.318;2023-03-15T00:51:29;100465.92;;;-0.40;36.80
64139;BME280;50435;43.700;-79.318;2023-03-15T00:53:57;100477.53;;;-0.39;37.09
64139;BME280;50435;43.700;-79.318;2023-03-15T00:56:26;100471.01;;;-0.86;36.89
64139;BME280;50435;43.700;-79.318;2023-03-15T00:58:53;100463.82;;;-0.52;36.79
64139;BME280;50435;43.700;-79.318;2023-03-15T01:01:23;100472.88;;;-0.54;36.60
64139;BME280;50435;43.700;-79.318;2023-03-15T01:03:51;100474.85;;;-0.18;36.94
64139;BME280;50435;43.700;-79.318;2023-03-15T01:06:21;100481.00;;;-0.43;37.14
64139;BME280;50435;43.700;-79.318;2023-03-15T01:08:49;100468.13;;;-0.37;36.70
64139;BME280;50435;43.700;-79.318;2023-03-15T01:11:19;100473.01;;;-0.76;37.02
64139;BME280;50435;43.700;-79.318;2023-03-15T01:13:47;100477.60;;;-0.37;36.97
64139;BME280;50435;43.700;-79.318;2023-03-15T01:16:14;100488.10;;;-0.50;37.06
64139;BME280;50435;43.700;-79.318;2023-03-15T01:18:42;100475.62;;;-0.50;37.24
64139;BME280;50435;43.700;-79.318;2023-03-15T01:21:12;100479.78;;;-0.53;36.53
64139;BME280;50435;43.700;-79.318;2023-03-15T01:23:40;100481.81;;;-0.40;36.80
64139;BME280;50435;43.700;-79.318;2023-03-15T01:26:12;100481.06;;;-0.32;36.76
64139;BME280;50435;43.700;-79.318;2023-03-15T01:28:40;100485.28;;;-0.82;36.90
64139;BME280;50435;43.700;-79.318;2023-03-15T01:31:16;100487.55;;;-0.44;36.33
64139;BME280;50435;43.700;-79.318;2023-03-15T01:33:43;100489.72;;;-0.19;37.36
64139;BME280;50435;43.700;-79.318;2023-03-15T01:36:11;100492.18;;;-0.60;36.40
64139;BME280;50435;43.700;-79.318;2023-03-15T01:38:39;100488.46;;;-0.78;36.56
64139;BME280;50435;43.700;-79.318;2023-03-15T01:41:07;100486.97;;;-0.28;36.98
64139;BME280;50435;43.700;-79.318;2023-03-15T01:43:34;100483.03;;;-0.40;37.08
64139;BME280;50435;43.700;-79.318;2023-03-15T01:46:06;100490.11;;;-0.54;36.86
64139;BME280;50435;43.700;-79.318;2023-03-15T01:48:37;100495.43;;;-0.79;36.76
64139;BME280;50435;43.700;-79.318;2023-03-15T01:51:08;100493.97;;;-0.85;36.91
64139;BME280;50435;43.700;-79.318;2023-03-15T01:53:38;100489.58;;;-0.57;36.87
64139;BME280;50435;43.700;-79.318;2023-03-15T01:56:09;100492.05;;;-0.53;36.78
64139;BME280;50435;43.700;-79.318;2023-03-15T01:58:37;100490.38;;;-0.92;37.24
64139;BME280;50435;43.700;-79.318;2023-03-15T02:01:06;100491.15;;;-0.87;37.17
64139;BME280;50435;43.700;-79.318;2023-03-15T02:03:37;100492.23;;;-0.81;37.06
64139;BME280;50435;43.700;-79.318;2023-03-15T02:06:09;100490.74;;;-0.91;36.38
64139;BME280;50435;43.700;-79.318;2023-03-15T02:08:40;100490.13;;;-1.65;35.88
64139;BME280;50435;43.700;-79.318;2023-03-15T02:11:09;100491.29;;;-0.59;37.06
64139;BME280;50435;43.700;-79.318;2023-03-15T02:13:37;100494.51;;;-0.30;36.53
64139;BME280;50435;43.700;-79.318;2023-03-15T02:16:06;100500.54;;;-0.65;37.00
64139;BME280;50435;43.700;-79.318;2023-03-15T02:18:34;100499.58;;;-0.66;36.44
64139;BME280;50435;43.700;-79.318;2023-03-15T02:21:09;100499.65;;;-0.64;36.96
64139;BME280;50435;43.700;-79.318;2023-03-15T02:23:39;100498.76;;;-0.57;36.73
64139;BME280;50435;43.700;-79.318;2023-03-15T02:26:15;100501.79;;;-0.47;37.31
64139;BME280;50435;43.700;-79.318;2023-03-15T02:28:45;100503.63;;;-0.72;37.10
64139;BME280;50435;43.700;-79.318;2023-03-15T02:31:13;100503.44;;;-0.50;37.07
64139;BME280;50435;43.700;-79.318;2023-03-15T02:33:43;100504.60;;;-0.78;36.90
64139;BME280;50435;43.700;-79.318;2023-03-15T02:36:17;100507.79;;;-0.69;36.98
64139;BME280;50435;43.700;-79.318;2023-03-15T02:38:46;100500.41;;;-0.86;36.62
64139;BME280;50435;43.700;-79.318;2023-03-15T02:41:16;100497.25;;;-0.60;36.93
64139;BME280;50435;43.700;-79.318;2023-03-15T02:43:45;100505.25;;;-0.66;37.12
64139;BME280;50435;43.700;-79.318;2023-03-15T02:46:15;100507.60;;;-0.68;37.06
64139;BME280;50435;43.700;-79.318;2023-03-15T02:48:45;100503.41;;;-0.75;36.90
64139;BME280;50435;43.700;-79.318;2023-03-15T02:51:19;100498.14;;;-0.76;37.07
64139;BME280;50435;43.700;-79.318;2023-03-15T02:53:47;100501.34;;;-0.68;37.01
64139;BME280;50435;43.700;-79.318;2023-03-15T02:56:15;100493.02;;;-0.62;36.46
64139;BME280;50435;43.700;-79.318;2023-03-15T02:58:43;100499.39;;;-0.59;37.07
64139;BME280;50435;43.700;-79.318;2023-03-15T03:01:11;100498.35;;;-1.19;37.17
64139;BME280;50435;43.700;-79.318;2023-03-15T03:03:39;100506.00;;;-0.72;37.16
64139;BME280;50435;43.700;-79.318;2023-03-15T03:06:07;100498.79;;;-0.73;37.23
64139;BME280;50435;43.700;-79.318;2023-03-15T03:08:36;100502.79;;;-0.59;37.04
64139;BME280;50435;43.700;-79.318;2023-03-15T03:11:04;100507.59;;;-0.76;37.12
64139;BME280;50435;43.700;-79.318;2023-03-15T03:13:32;100507.22;;;-1.10;37.13
64139;BME280;50435;43.700;-79.318;2023-03-15T03:15:59;100502.81;;;-0.75;37.09
64139;BME280;50435;43.700;-79.318;2023-03-15T03:18:28;100503.00;;;-0.35;37.20
64139;BME280;50435;43.700;-79.318;2023-03-15T03:20:56;100505.71;;;-0.54;37.76
64139;BME280;50435;43.700;-79.318;2023-03-15T03:23:25;100510.60;;;-0.85;36.55
64139;BME280;50435;43.700;-79.318;2023-03-15T03:25:53;100507.47;;;-0.88;37.55
64139;BME280;50435;43.700;-79.318;2023-03-15T03:28:22;100504.23;;;-0.79;37.02
64139;BME280;50435;43.700;-79.318;2023-03-15T03:30:52;100501.84;;;-0.74;37.14
64139;BME280;50435;43.700;-79.318;2023-03-15T03:33:20;100496.69;;;-0.67;37.41
64139;BME280;50435;43.700;-79.318;2023-03-15T03:35:48;100503.43;;;-0.50;37.21
64139;BME280;50435;43.700;-79.318;2023-03-15T03:38:15;100501.07;;;-0.92;37.45
64139;BME280;50435;43.700;-79.318;2023-03-15T03:40:44;100500.13;;;-0.91;37.70
64139;BME280;50435;43.700;-79.318;2023-03-15T03:43:11;100493.37;;;-0.97;36.99
64139;BME280;50435;43.700;-79.318;2023-03-15T03:45:39;100496.86;;;-0.86;37.54
64139;BME280;50435;43.700;-79.318;2023-03-15T03:48:06;100502.25;;;-0.83;37.71
64139;BME280;50435;43.700;-79.318;2023-03-15T03:50:34;100505.13;;;-0.93;37.50
64139;BME280;50435;43.700;-79.318;2023-03-15T03:53:01;100505.31;;;-0.85;37.47
64139;BME280;50435;43.700;-79.318;2023-03-15T03:55:28;100503.55;;;-0.99;37.62
64139;BME280;50435;43.700;-79.318;2023-03-15T03:57:56;100510.75;;;-0.71;37.55
64139;BME280;50435;43.700;-79.318;2023-03-15T04:00:24;100506.25;;;-0.70;37.20
64139;BME280;50435;43.700;-79.318;2023-03-15T04:02:52;100508.27;;;-1.00;37.25
64139;BME280;50435;43.700;-79.318;2023-03-15T04:05:19;100504.39;;;-1.10;37.40
64139;BME280;50435;43.700;-79.318;2023-03-15T04:07:47;100510.92;;;-0.94;37.54
64139;BME280;50435;43.700;-79.318;2023-03-15T04:10:15;100505.73;;;-0.93;36.97
64139;BME280;50435;43.700;-79.318;2023-03-15T04:12:43;100508.81;;;-1.11;37.09
64139;BME280;50435;43.700;-79.318;2023-03-15T04:15:11;100496.89;;;-1.07;37.09
64139;BME280;50435;43.700;-79.318;2023-03-15T04:17:39;100510.69;;;-1.02;36.98
64139;BME280;50435;43.700;-79.318;2023-03-15T04:20:07;100505.94;;;-0.96;37.27
64139;BME280;50435;43.700;-79.318;2023-03-15T04:22:35;100511.72;;;-1.35;36.23
64139;BME280;50435;43.700;-79.318;2023-03-15T04:25:03;100516.10;;;-1.06;37.13
64139;BME280;50435;43.700;-79.318;2023-03-15T04:27:31;100508.35;;;-1.24;37.34
64139;BME280;50435;43.700;-79.318;2023-03-15T04:29:58;100514.19;;;-1.48;37.31
64139;BME280;50435;43.700;-79.318;2023-03-15T04:32:26;100512.19;;;-1.21;37.13
64139;BME280;50435;43.700;-79.318;2023-03-15T04:34:53;100518.95;;;-1.28;37.37
64139;BME280;50435;43.700;-79.318;2023-03-15T04:37:21;100515.15;;;-1.37;37.54
64139;BME280;50435;43.700;-79.318;2023-03-15T04:39:48;100518.61;;;-1.20;37.36
64139;BME280;50435;43.700;-79.318;2023-03-15T04:42:15;100514.85;;;-0.64;37.11
64139;BME280;50435;43.700;-79.318;2023-03-15T04:44:43;100520.41;;;-0.68;37.02
64139;BME280;50435;43.700;-79.318;2023-03-15T04:47:10;100520.79;;;-1.12;37.45
64139;BME280;50435;43.700;-79.318;2023-03-15T04:49:38;100520.04;;;-0.91;37.26
64139;BME280;50435;43.700;-79.318;2023-03-15T04:52:05;100517.26;;;-0.92;36.39
64139;BME280;50435;43.700;-79.318;2023-03-15T04:54:33;100521.88;;;-0.85;37.13
64139;BME280;50435;43.700;-79.318;2023-03-15T04:57:00;100525.10;;;-1.09;36.90
64139;BME280;50435;43.700;-79.318;2023-03-15T04:59:28;100509.46;;;-1.26;35.06
64139;BME280;50435;43.700;-79.318;2023-03-15T05:01:56;100520.26;;;-1.26;36.95
64139;BME280;50435;43.700;-79.318;2023-03-15T05:04:24;100523.48;;;-0.93;37.05
64139;BME280;50435;43.700;-79.318;2023-03-15T05:06:51;100524.57;;;-1.11;37.21
64139;BME280;50435;43.700;-79.318;2023-03-15T05:09:19;100528.86;;;-1.29;37.50
64139;BME280;50435;43.700;-79.318;2023-03-15T05:11:46;100527.10;;;-1.27;37.71
64139;BME280;50435;43.700;-79.318;2023-03-15T05:14:14;100535.10;;;-1.11;37.28
64139;BME280;50435;43.700;-79.318;2023-03-15T05:16:41;100537.09;;;-1.03;37.04
64139;BME280;50435;43.700;-79.318;2023-03-15T05:19:08;100540.75;;;-1.20;37.16
64139;BME280;50435;43.700;-79.318;2023-03-15T05:21:36;100544.47;;;-1.75;36.95
64139;BME280;50435;43.700;-79.318;2023-03-15T05:24:03;100552.19;;;-1.54;37.17
64139;BME280;50435;43.700;-79.318;2023-03-15T05:26:31;100540.25;;;-1.46;36.88
64139;BME280;50435;43.700;-79.318;2023-03-15T05:28:58;100541.66;;;-1.16;37.19
64139;BME280;50435;43.700;-79.318;2023-03-15T05:31:25;100531.36;;;-1.07;36.98
64139;BME280;50435;43.700;-79.318;2023-03-15T05:33:53;100531.08;;;-1.30;36.62
64139;BME280;50435;43.700;-79.318;2023-03-15T05:36:20;100527.17;;;-1.35;36.70
64139;BME280;50435;43.700;-79.318;2023-03-15T05:38:48;100522.71;;;-1.21;36.71
64139;BME280;50435;43.700;-79.318;2023-03-15T05:41:15;100535.51;;;-0.96;36.69
64139;BME280;50435;43.700;-79.318;2023-03-15T05:43:43;100539.49;;;-1.38;36.77
64139;BME280;50435;43.700;-79.318;2023-03-15T05:46:10;100541.48;;;-1.53;36.91
64139;BME280;50435;43.700;-79.318;2023-03-15T05:48:37;100540.16;;;-1.68;36.43
64139;BME280;50435;43.700;-79.318;2023-03-15T05:51:05;100550.63;;;-1.44;36.40
64139;BME280;50435;43.700;-79.318;2023-03-15T05:53:32;100546.72;;;-1.23;36.11
64139;BME280;50435;43.700;-79.318;2023-03-15T05:56:00;100562.07;;;-1.32;36.45
64139;BME280;50435;43.700;-79.318;2023-03-15T05:58:27;100564.85;;;-1.70;36.55
64139;BME280;50435;43.700;-79.318;2023-03-15T06:00:55;100566.17;;;-1.47;36.35
64139;BME280;50435;43.700;-79.318;2023-03-15T06:03:22;100570.47;;;-1.57;36.60
64139;BME280;50435;43.700;-79.318;2023-03-15T06:05:49;100573.73;;;-1.11;36.19
64139;BME280;50435;43.700;-79.318;2023-03-15T06:08:17;100577.92;;;-1.12;36.53
64139;BME280;50435;43.700;-79.318;2023-03-15T06:10:44;100582.65;;;-1.55;36.53
64139;BME280;50435;43.700;-79.318;2023-03-15T06:13:12;100580.59;;;-1.71;36.34
64139;BME280;50435;43.700;-79.318;2023-03-15T06:15:39;100583.53;;;-0.87;36.08
64139;BME280;50435;43.700;-79.318;2023-03-15T06:18:07;100586.06;;;-1.34;36.35
64139;BME280;50435;43.700;-79.318;2023-03-15T06:20:34;100590.57;;;-1.28;36.54
64139;BME280;50435;43.700;-79.318;2023-03-15T06:23:01;100592.89;;;-1.57;36.70
64139;BME280;50435;43.700;-79.318;2023-03-15T06:25:29;100587.24;;;-1.59;36.41
64139;BME280;50435;43.700;-79.318;2023-03-15T06:27:56;100596.99;;;-1.31;36.62
64139;BME280;50435;43.700;-79.318;2023-03-15T06:30:24;100595.88;;;-1.66;36.70
64139;BME280;50435;43.700;-79.318;2023-03-15T06:32:51;100592.34;;;-1.79;36.53
64139;BME280;50435;43.700;-79.318;2023-03-15T06:35:19;100599.96;;;-1.80;36.45
64139;BME280;50435;43.700;-79.318;2023-03-15T06:37:46;100596.55;;;-1.75;36.55
64139;BME280;50435;43.700;-79.318;2023-03-15T06:40:14;100592.48;;;-1.59;36.65
64139;BME280;50435;43.700;-79.318;2023-03-15T06:42:41;100585.23;;;-1.21;36.32
64139;BME280;50435;43.700;-79.318;2023-03-15T06:45:09;100588.69;;;-1.21;36.28
64139;BME280;50435;43.700;-79.318;2023-03-15T06:47:37;100587.28;;;-1.43;36.54
64139;BME280;50435;43.700;-79.318;2023-03-15T06:50:05;100592.28;;;-1.64;36.53
64139;BME280;50435;43.700;-79.318;2023-03-15T06:52:32;100602.80;;;-1.64;36.42
64139;BME280;50435;43.700;-79.318;2023-03-15T06:55:00;100595.74;;;-1.57;36.32
64139;BME280;50435;43.700;-79.318;2023-03-15T06:57:27;100594.02;;;-1.87;36.52
64139;BME280;50435;43.700;-79.318;2023-03-15T06:59:55;100604.30;;;-1.63;36.41
64139;BME280;50435;43.700;-79.318;2023-03-15T07:02:22;100593.01;;;-2.30;36.38
64139;BME280;50435;43.700;-79.318;2023-03-15T07:04:50;100600.87;;;-1.77;36.55
64139;BME280;50435;43.700;-79.318;2023-03-15T07:07:17;100605.25;;;-1.81;36.61
64139;BME280;50435;43.700;-79.318;2023-03-15T07:09:44;100593.97;;;-1.73;36.71
64139;BME280;50435;43.700;-79.318;2023-03-15T07:12:12;100591.11;;;-1.93;36.84
64139;BME280;50435;43.700;-79.318;2023-03-15T07:14:40;100593.24;;;-1.99;36.98
64139;BME280;50435;43.700;-79.318;2023-03-15T07:17:08;100594.12;;;-1.92;36.88
64139;BME280;50435;43.700;-79.318;2023-03-15T07:19:35;100589.71;;;-1.89;36.71
64139;BME280;50435;43.700;-79.318;2023-03-15T07:22:03;100587.50;;;-1.50;36.34
64139;BME280;50435;43.700;-79.318;2023-03-15T07:24:30;100579.04;;;-1.93;35.94
64139;BME280;50435;43.700;-79.318;2023-03-15T07:26:57;100581.69;;;-1.74;36.57
64139;BME280;50435;43.700;-79.318;2023-03-15T07:29:25;100573.70;;;-2.37;36.08
64139;BME280;50435;43.700;-79.318;2023-03-15T07:31:52;100573.90;;;-1.88;36.71
64139;BME280;50435;43.700;-79.318;2023-03-15T07:34:20;100576.89;;;-1.82;36.53
64139;BME280;50435;43.700;-79.318;2023-03-15T07:36:47;100568.85;;;-1.74;36.45
64139;BME280;50435;43.700;-79.318;2023-03-15T07:39:15;100566.61;;;-2.03;36.75
64139;BME280;50435;43.700;-79.318;2023-03-15T07:41:42;100560.68;;;-1.91;36.67
64139;BME280;50435;43.700;-79.318;2023-03-15T07:44:10;100572.94;;;-2.15;36.67
64139;BME280;50435;43.700;-79.318;2023-03-15T07:46:37;100564.32;;;-1.85;36.40
64139;BME280;50435;43.700;-79.318;2023-03-15T07:49:05;100578.17;;;-1.96;36.47
64139;BME280;50435;43.700;-79.318;2023-03-15T07:51:32;100578.51;;;-1.97;36.44
64139;BME280;50435;43.700;-79.318;2023-03-15T07:53:59;100575.77;;;-2.21;36.39
64139;BME280;50435;43.700;-79.318;2023-03-15T07:56:27;100583.55;;;-3.73;36.46
64139;BME280;50435;43.700;-79.318;2023-03-15T07:58:54;100586.02;;;-2.32;36.57
64139;BME280;50435;43.700;-79.318;2023-03-15T08:01:22;100593.78;;;-2.25;36.33
64139;BME280;50435;43.700;-79.318;2023-03-15T08:03:49;100599.90;;;-2.38;36.69
64139;BME280;50435;43.700;-79.318;2023-03-15T08:06:17;100598.48;;;-2.16;36.50
64139;BME280;50435;43.700;-79.318;2023-03-15T08:08:44;100602.87;;;-1.97;36.32
64139;BME280;50435;43.700;-79.318;2023-03-15T08:11:12;100609.08;;;-2.18;36.56
64139;BME280;50435;43.700;-79.318;2023-03-15T08:13:39;100603.95;;;-2.13;36.57
64139;BME280;50435;43.700;-79.318;2023-03-15T08:16:07;100599.38;;;-2.40;36.18
64139;BME280;50435;43.700;-79.318;2023-03-15T08:18:34;100608.07;;;-2.23;36.63
64139;BME280;50435;43.700;-79.318;2023-03-15T08:21:02;100608.89;;;-2.12;36.41
64139;BME280;50435;43.700;-79.318;2023-03-15T08:23:29;100609.69;;;-2.36;36.68
64139;BME280;50435;43.700;-79.318;2023-03-15T08:25:56;100614.16;;;-2.28;36.60
64139;BME280;50435;43.700;-79.318;2023-03-15T08:28:24;100616.98;;;-2.37;36.70
64139;BME280;50435;43.700;-79.318;2023-03-15T08:30:51;100610.69;;;-2.39;36.80
64139;BME280;50435;43.700;-79.318;2023-03-15T08:33:19;100607.97;;;-1.84;36.81
64139;BME280;50435;43.700;-79.318;2023-03-15T08:35:51;100616.16;;;-2.37;36.76
64139;BME280;50435;43.700;-79.318;2023-03-15T08:38:19;100611.72;;;-2.09;36.43
64139;BME280;50435;43.700;-79.318;2023-03-15T08:40:46;100611.40;;;-1.82;36.73
64139;BME280;50435;43.700;-79.318;2023-03-15T08:43:14;100613.97;;;-2.11;36.73
64139;BME280;50435;43.700;-79.318;2023-03-15T08:45:41;100615.08;;;-2.32;36.97
64139;BME280;50435;43.700;-79.318;2023-03-15T08:48:09;100615.20;;;-2.29;37.02
64139;BME280;50435;43.700;-79.318;2023-03-15T08:50:36;100616.13;;;-2.38;37.01
64139;BME280;50435;43.700;-79.318;2023-03-15T08:53:04;100616.00;;;-2.41;36.67
64139;BME280;50435;43.700;-79.318;2023-03-15T08:55:31;100616.13;;;-2.56;36.81
64139;BME280;50435;43.700;-79.318;2023-03-15T08:57:59;100619.63;;;-2.52;36.76
64139;BME280;50435;43.700;-79.318;2023-03-15T09:00:26;100623.78;;;-2.65;36.56
64139;BME280;50435;43.700;-79.318;2023-03-15T09:02:54;100622.03;;;-2.23;36.30
64139;BME280;50435;43.700;-79.318;2023-03-15T09:05:22;100624.85;;;-2.37;36.25
64139;BME280;50435;43.700;-79.318;2023-03-15T09:07:51;100632.38;;;-2.45;36.46
64139;BME280;50435;43.700;-79.318;2023-03-15T09:10:19;100626.56;;;-2.90;36.73
64139;BME280;50435;43.700;-79.318;2023-03-15T09:12:49;100631.15;;;-2.37;36.41
64139;BME280;50435;43.700;-79.318;2023-03-15T09:15:16;100629.09;;;-2.71;36.58
64139;BME280;50435;43.700;-79.318;2023-03-15T09:17:44;100632.63;;;-2.53;36.46
64139;BME280;50435;43.700;-79.318;2023-03-15T09:20:12;100637.70;;;-2.17;36.79
64139;BME280;50435;43.700;-79.318;2023-03-15T09:22:41;100644.54;;;-2.66;36.66
64139;BME280;50435;43.700;-79.318;2023-03-15T09:25:09;100642.88;;;-2.63;36.72
64139;BME280;50435;43.700;-79.318;2023-03-15T09:27:36;100643.99;;;-2.70;36.67
64139;BME280;50435;43.700;-79.318;2023-03-15T09:30:05;100645.15;;;-2.63;36.56
64139;BME280;50435;43.700;-79.318;2023-03-15T09:32:32;100647.67;;;-2.71;36.75
64139;BME280;50435;43.700;-79.318;2023-03-15T09:34:59;100644.81;;;-3.03;36.80
64139;BME280;50435;43.700;-79.318;2023-03-15T09:37:27;100649.57;;;-2.92;36.93
64139;BME280;50435;43.700;-79.318;2023-03-15T09:39:54;100658.73;;;-2.83;36.67
64139;BME280;50435;43.700;-79.318;2023-03-15T09:42:26;100653.24;;;-3.02;36.85
64139;BME280;50435;43.700;-79.318;2023-03-15T09:45:05;100658.57;;;-2.29;36.56
64139;BME280;50435;43.700;-79.318;2023-03-15T09:47:41;100664.52;;;-2.58;36.56
64139;BME280;50435;43.700;-79.318;2023-03-15T09:50:20;100672.89;;;-2.28;36.64
64139;BME280;50435;43.700;-79.318;2023-03-15T09:52:50;100665.29;;;-2.45;36.65
64139;BME280;50435;43.700;-79.318;2023-03-15T09:55:22;100674.01;;;-2.74;36.59
64139;BME280;50435;43.700;-79.318;2023-03-15T09:57:53;100682.31;;;-2.68;36.92
64139;BME280;50435;43.700;-79.318;2023-03-15T10:00:36;100678.34;;;-2.75;37.07
64139;BME280;50435;43.700;-79.318;2023-03-15T10:03:05;100680.02;;;-2.50;36.94
64139;BME280;50435;43.700;-79.318;2023-03-15T10:05:39;100682.51;;;-2.94;36.69
64139;BME280;50435;43.700;-79.318;2023-03-15T10:08:09;100688.64;;;-2.52;36.61
64139;BME280;50435;43.700;-79.318;2023-03-15T10:10:42;100696.35;;;-2.77;37.05
64139;BME280;50435;43.700;-79.318;2023-03-15T10:13:24;100692.49;;;-2.42;36.82
64139;BME280;50435;43.700;-79.318;2023-03-15T10:16:02;100692.40;;;-2.59;36.89
64139;BME280;50435;43.700;-79.318;2023-03-15T10:18:43;100700.12;;;-2.63;36.72
64139;BME280;50435;43.700;-79.318;2023-03-15T10:21:26;100696.56;;;-2.45;36.73
64139;BME280;50435;43.700;-79.318;2023-03-15T10:23:57;100700.70;;;-3.04;36.83
64139;BME280;50435;43.700;-79.318;2023-03-15T10:26:30;100685.89;;;-2.99;36.73
64139;BME280;50435;43.700;-79.318;2023-03-15T10:29:02;100695.04;;;-2.92;36.65
64139;BME280;50435;43.700;-79.318;2023-03-15T10:31:33;100696.73;;;-2.95;36.67
64139;BME280;50435;43.700;-79.318;2023-03-15T10:34:03;100697.22;;;-3.00;36.61
64139;BME280;50435;43.700;-79.318;2023-03-15T10:36:30;100689.46;;;-3.00;36.80
64139;BME280;50435;43.700;-79.318;2023-03-15T10:38:58;100701.80;;;-3.06;36.82
64139;BME280;50435;43.700;-79.318;2023-03-15T10:41:29;100711.12;;;-2.91;36.46
64139;BME280;50435;43.700;-79.318;2023-03-15T10:44:00;100702.92;;;-2.99;36.64
64139;BME280;50435;43.700;-79.318;2023-03-15T10:46:28;100705.72;;;-3.21;36.82
64139;BME280;50435;43.700;-79.318;2023-03-15T10:48:57;100704.82;;;-2.91;36.53
64139;BME280;50435;43.700;-79.318;2023-03-15T10:51:27;100709.13;;;-3.07;36.63
64139;BME280;50435;43.700;-79.318;2023-03-15T10:53:57;100708.90;;;-2.78;36.78
64139;BME280;50435;43.700;-79.318;2023-03-15T10:56:28;100715.91;;;-2.57;36.63
64139;BME280;50435;43.700;-79.318;2023-03-15T10:58:57;100717.80;;;-3.13;36.83
64139;BME280;50435;43.700;-79.318;2023-03-15T11:01:29;100726.06;;;-2.71;36.72
64139;BME280;50435;43.700;-79.318;2023-03-15T11:04:08;100727.41;;;-3.20;36.80
64139;BME280;50435;43.700;-79.318;2023-03-15T11:06:41;100727.61;;;-3.30;36.75
64139;BME280;50435;43.700;-79.318;2023-03-15T11:09:10;100736.92;;;-3.34;36.81
64139;BME280;50435;43.700;-79.318;2023-03-15T11:11:58;100736.44;;;-3.18;36.71
64139;BME280;50435;43.700;-79.318;2023-03-15T11:14:27;100739.82;;;-3.28;36.44
64139;BME280;50435;43.700;-79.318;2023-03-15T11:17:01;100745.60;;;-3.30;36.67
64139;BME280;50435;43.700;-79.318;2023-03-15T11:19:31;100751.71;;;-3.13;36.40
64139;BME280;50435;43.700;-79.318;2023-03-15T11:22:01;100754.16;;;-2.75;36.66
64139;BME280;50435;43.700;-79.318;2023-03-15T11:24:30;100759.70;;;-3.46;35.84
64139;BME280;50435;43.700;-79.318;2023-03-15T11:27:00;100774.22;;;-2.91;36.57
64139;BME280;50435;43.700;-79.318;2023-03-15T11:29:30;100776.11;;;-2.86;36.21
64139;BME280;50435;43.700;-79.318;2023-03-15T11:31:59;100783.21;;;-2.97;36.42
64139;BME280;50435;43.700;-79.318;2023-03-15T11:34:37;100783.93;;;-3.55;36.70
64139;BME280;50435;43.700;-79.318;2023-03-15T11:37:12;100792.85;;;-2.98;36.70
64139;BME280;50435;43.700;-79.318;2023-03-15T11:39:45;100776.99;;;-3.55;36.82
64139;BME280;50435;43.700;-79.318;2023-03-15T11:42:20;100787.35;;;-3.02;36.66
64139;BME280;50435;43.700;-79.318;2023-03-15T11:44:51;100797.11;;;-3.05;36.50
64139;BME280;50435;43.700;-79.318;2023-03-15T11:47:31;100795.77;;;-3.13;36.74
64139;BME280;50435;43.700;-79.318;2023-03-15T11:50:01;100796.37;;;-3.06;36.67
64139;BME280;50435;43.700;-79.318;2023-03-15T11:52:29;100797.58;;;-3.16;36.48
64139;BME280;50435;43.700;-79.318;2023-03-15T11:55:00;100811.44;;;-3.13;36.41
64139;BME280;50435;43.700;-79.318;2023-03-15T11:57:42;100810.26;;;-3.07;36.55
64139;BME280;50435;43.700;-79.318;2023-03-15T12:00:50;100810.04;;;-3.35;36.66
64139;BME280;50435;43.700;-79.318;2023-03-15T12:03:28;100814.07;;;-2.64;36.00
64139;BME280;50435;43.700;-79.318;2023-03-15T12:06:00;100825.49;;;-2.92;36.24
64139;BME280;50435;43.700;-79.318;2023-03-15T12:08:44;100823.24;;;-2.86;36.36
64139;BME280;50435;43.700;-79.318;2023-03-15T12:11:28;100824.73;;;-3.12;36.43
64139;BME280;50435;43.700;-79.318;2023-03-15T12:14:04;100824.27;;;-3.18;36.39
64139;BME280;50435;43.700;-79.318;2023-03-15T12:16:40;100822.23;;;-3.44;35.81
64139;BME280;50435;43.700;-79.318;2023-03-15T12:19:12;100826.63;;;-3.17;35.85
64139;BME280;50435;43.700;-79.318;2023-03-15T12:21:44;100825.64;;;-3.27;35.93
64139;BME280;50435;43.700;-79.318;2023-03-15T12:24:19;100820.79;;;-2.69;34.97
64139;BME280;50435;43.700;-79.318;2023-03-15T12:26:52;100822.18;;;-3.26;35.38
64139;BME280;50435;43.700;-79.318;2023-03-15T12:29:26;100830.72;;;-2.74;35.49
64139;BME280;50435;43.700;-79.318;2023-03-15T12:31:57;100833.28;;;-2.84;35.83
64139;BME280;50435;43.700;-79.318;2023-03-15T12:34:42;100838.35;;;-2.66;35.09
64139;BME280;50435;43.700;-79.318;2023-03-15T12:37:15;100846.46;;;-2.83;35.61
64139;BME280;50435;43.700;-79.318;2023-03-15T12:39:47;100839.36;;;-2.70;34.89
64139;BME280;50435;43.700;-79.318;2023-03-15T12:44:36;100849.39;;;-2.10;34.94